Time;durP1;ratioP1;P1;durP2;ratioP2;P2;SDS_P1;SDS_P2;PMS_P1;PMS_P2;Temp;Humidity;BMP_temperature;BMP_pressure;BME280_temperature;BME280_humidity;BME280_pressure;Samples;Min_cycle;Max_cycle;Signal;HPM_P1;HPM_P2
2022/11/26 00:00:56;;;;;;;27.80;8.20;;;4.70;99.90;;;;;;5051001;28;20140;-43
2022/11/26 00:03:22;;;;;;;30.00;8.02;;;4.80;99.90;;;;;;5051898;28;20466;-46
2022/11/26 00:05:51;;;;;;;28.38;8.68;;;4.70;99.90;;;;;;5053362;28;20088;-44
2022/11/26 00:08:22;;;;;;;26.65;6.93;;;4.80;99.90;;;;;;5051607;28;20059;-47
2022/11/26 00:10:51;;;;;;;32.00;7.53;;;4.80;99.90;;;;;;5052576;28;20181;-42
2022/11/26 00:13:22;;;;;;;23.10;7.30;;;4.70;99.90;;;;;;5053118;28;20558;-48
2022/11/26 00:15:49;;;;;;;23.05;7.22;;;4.80;99.90;;;;;;5040833;28;20060;-43
2022/11/26 00:18:15;;;;;;;22.27;8.15;;;4.70;99.90;;;;;;5053483;28;20051;-43
2022/11/26 00:20:42;;;;;;;24.75;7.28;;;4.70;99.90;;;;;;5053397;28;20490;-48
2022/11/26 00:23:23;;;;;;;34.80;7.93;;;4.70;99.90;;;;;;5040269;28;20053;-46
2022/11/26 00:26:02;;;;;;;26.63;7.10;;;4.70;99.90;;;;;;5041822;28;20045;-42
2022/11/26 00:28:36;;;;;;;25.42;6.90;;;4.80;99.90;;;;;;5053197;28;20044;-46
2022/11/26 00:31:11;;;;;;;29.77;7.55;;;4.70;99.90;;;;;;5052691;28;20045;-51
2022/11/26 00:33:37;;;;;;;29.02;7.88;;;4.80;99.90;;;;;;5052736;28;20225;-46
2022/11/26 00:36:12;;;;;;;25.38;7.82;;;4.70;99.90;;;;;;5053798;28;20059;-46
2022/11/26 00:38:38;;;;;;;22.70;6.85;;;4.70;99.90;;;;;;5053423;28;20848;-42
2022/11/26 00:41:05;;;;;;;33.67;8.02;;;4.80;99.90;;;;;;5045751;28;20053;-44
2022/11/26 00:43:31;;;;;;;27.95;7.70;;;4.70;99.90;;;;;;5053479;28;20142;-42
2022/11/26 00:45:56;;;;;;;31.55;7.85;;;4.80;99.90;;;;;;5053153;28;20052;-48
2022/11/26 00:48:22;;;;;;;26.75;7.80;;;4.70;99.90;;;;;;5054181;28;20044;-46
2022/11/26 00:50:50;;;;;;;25.90;8.13;;;4.70;99.90;;;;;;5053212;28;20040;-47
2022/11/26 00:53:19;;;;;;;22.08;7.25;;;4.80;99.90;;;;;;5055480;28;20507;-45
2022/11/26 00:55:47;;;;;;;26.23;7.35;;;4.80;99.90;;;;;;5057427;28;20049;-44
2022/11/26 00:58:26;;;;;;;20.40;7.38;;;4.70;99.90;;;;;;5056498;28;20458;-42
2022/11/26 01:00:52;;;;;;;23.55;6.00;;;4.80;99.90;;;;;;5057451;28;20056;-48
2022/11/26 01:03:18;;;;;;;29.05;8.25;;;4.70;99.90;;;;;;5089848;28;20486;-46
2022/11/26 01:05:47;;;;;;;24.27;6.95;;;4.70;99.90;;;;;;5058190;28;20094;-48
2022/11/26 01:08:25;;;;;;;26.48;7.32;;;4.70;99.90;;;;;;5057489;28;20048;-46
2022/11/26 01:10:50;;;;;;;29.27;7.72;;;4.80;99.90;;;;;;5056424;28;20044;-44
2022/11/26 01:13:16;;;;;;;24.08;6.90;;;4.60;99.90;;;;;;5056389;28;20597;-46
2022/11/26 01:15:42;;;;;;;31.58;7.95;;;4.70;99.90;;;;;;5055575;28;20096;-45
2022/11/26 01:18:20;;;;;;;24.42;7.55;;;4.70;99.90;;;;;;5056771;28;20399;-47
2022/11/26 01:20:46;;;;;;;29.15;7.03;;;4.60;99.90;;;;;;5044496;28;20084;-45
2022/11/26 01:23:13;;;;;;;19.90;6.25;;;4.60;99.90;;;;;;5073094;28;20091;-44
2022/11/26 01:25:40;;;;;;;23.95;7.50;;;4.70;99.90;;;;;;5043696;28;20044;-41
2022/11/26 01:28:09;;;;;;;27.05;8.00;;;4.70;99.90;;;;;;5056168;28;20048;-48
2022/11/26 01:30:35;;;;;;;25.98;7.65;;;4.70;99.90;;;;;;5054408;28;20056;-46
2022/11/26 01:33:01;;;;;;;31.75;7.95;;;4.60;99.90;;;;;;5054624;28;20153;-43
2022/11/26 01:35:27;;;;;;;30.92;7.85;;;4.50;99.90;;;;;;5055223;28;20051;-44
2022/11/26 01:37:53;;;;;;;31.50;9.02;;;4.60;99.90;;;;;;5055827;28;20053;-44
2022/11/26 01:40:25;;;;;;;31.13;7.97;;;4.60;99.90;;;;;;5052349;28;20041;-44
2022/11/26 01:43:11;;;;;;;32.05;8.25;;;4.60;99.90;;;;;;5050926;28;20050;-45
2022/11/26 01:45:36;;;;;;;32.05;8.52;;;4.60;99.90;;;;;;5055545;28;20052;-45
2022/11/26 01:48:30;;;;;;;26.00;8.68;;;4.50;99.90;;;;;;5056078;28;20040;-46
2022/11/26 01:51:03;;;;;;;29.48;9.23;;;4.60;99.90;;;;;;5053540;28;20620;-45
2022/11/26 01:53:41;;;;;;;30.02;8.18;;;4.40;99.90;;;;;;5055253;28;20048;-48
2022/11/26 01:56:22;;;;;;;32.58;9.18;;;4.50;99.90;;;;;;5055596;28;20525;-45
2022/11/26 01:58:53;;;;;;;34.03;9.60;;;4.30;99.90;;;;;;5055406;28;20269;-46
2022/11/26 02:01:19;;;;;;;31.52;9.82;;;4.30;99.90;;;;;;5055287;28;20402;-44
2022/11/26 02:04:01;;;;;;;32.20;9.75;;;4.40;99.90;;;;;;5054776;28;20048;-42
2022/11/26 02:06:33;;;;;;;28.27;9.27;;;4.30;99.90;;;;;;5055662;28;20045;-47
2022/11/26 02:09:02;;;;;;;29.23;9.70;;;4.30;99.90;;;;;;5054616;28;20052;-44
2022/11/26 02:11:28;;;;;;;24.05;9.02;;;4.40;99.90;;;;;;5055817;28;20151;-46
2022/11/26 02:14:20;;;;;;;31.50;10.05;;;4.40;99.90;;;;;;5054743;28;20432;-43
2022/11/26 02:17:11;;;;;;;27.58;9.45;;;4.40;99.90;;;;;;5052336;28;20084;-46
2022/11/26 02:20:02;;;;;;;32.40;10.30;;;4.30;99.90;;;;;;5054733;28;20083;-41
2022/11/26 02:22:49;;;;;;;32.83;9.88;;;4.30;99.90;;;;;;5047813;28;20122;-49
2022/11/26 02:25:35;;;;;;;30.75;9.93;;;4.40;99.90;;;;;;5052535;28;20509;-43
2022/11/26 02:28:38;;;;;;;31.10;11.35;;;4.40;99.90;;;;;;5055151;28;20056;-45
2022/11/26 02:31:27;;;;;;;37.33;10.80;;;4.30;99.90;;;;;;5054542;28;20053;-42
2022/11/26 02:34:12;;;;;;;28.23;10.07;;;4.30;99.90;;;;;;5054605;28;20299;-45
2022/11/26 02:36:45;;;;;;;34.35;9.93;;;4.20;99.90;;;;;;5055234;28;20457;-45
2022/11/26 02:39:17;;;;;;;27.92;11.10;;;4.20;99.90;;;;;;5053097;28;20067;-42
2022/11/26 02:41:58;;;;;;;33.78;11.25;;;4.20;99.90;;;;;;5047091;28;20048;-47
2022/11/26 02:44:27;;;;;;;29.02;10.18;;;4.10;99.90;;;;;;5053887;28;20052;-46
2022/11/26 02:47:03;;;;;;;33.47;11.43;;;4.20;99.90;;;;;;5055166;28;20116;-48
2022/11/26 02:49:32;;;;;;;38.67;12.30;;;4.10;99.90;;;;;;5054207;28;20052;-48
2022/11/26 02:52:02;;;;;;;33.47;11.07;;;4.10;99.90;;;;;;5054023;28;20055;-47
2022/11/26 02:54:29;;;;;;;33.85;10.70;;;4.00;99.90;;;;;;5054626;28;20084;-44
2022/11/26 02:56:56;;;;;;;27.38;9.82;;;4.10;99.90;;;;;;5055757;28;20048;-46
2022/11/26 02:59:22;;;;;;;39.25;11.95;;;4.10;99.90;;;;;;5054033;28;20083;-45
2022/11/26 03:01:59;;;;;;;37.90;11.00;;;4.20;99.90;;;;;;5041550;28;20151;-48
2022/11/26 03:04:32;;;;;;;37.85;11.85;;;4.10;99.90;;;;;;5053266;28;20131;-45
2022/11/26 03:07:02;;;;;;;28.00;10.75;;;4.10;99.90;;;;;;5052700;28;20055;-47
2022/11/26 03:09:47;;;;;;;42.10;11.90;;;4.20;99.90;;;;;;5054105;28;20539;-45
2022/11/26 03:12:13;;;;;;;35.45;11.50;;;4.00;99.90;;;;;;5052946;28;20052;-42
2022/11/26 03:14:38;;;;;;;36.65;11.73;;;4.10;99.90;;;;;;5053905;28;20056;-48
2022/11/26 03:17:04;;;;;;;39.42;12.60;;;4.10;99.90;;;;;;5052725;28;20060;-44
2022/11/26 03:19:30;;;;;;;40.33;12.65;;;4.00;99.90;;;;;;5053452;28;20083;-46
2022/11/26 03:21:55;;;;;;;32.33;11.95;;;4.20;99.90;;;;;;5046853;28;20617;-48
2022/11/26 03:24:21;;;;;;;38.88;13.93;;;4.20;99.90;;;;;;5043662;28;20053;-43
2022/11/26 03:26:46;;;;;;;38.30;12.85;;;4.20;99.90;;;;;;5055099;28;20142;-42
2022/11/26 03:29:12;;;;;;;35.95;13.02;;;4.10;99.90;;;;;;5053802;28;20052;-45
2022/11/26 03:31:38;;;;;;;30.88;11.85;;;4.00;99.90;;;;;;5053799;28;20140;-43
2022/11/26 03:34:03;;;;;;;33.47;12.68;;;4.00;99.90;;;;;;5052273;28;20218;-48
2022/11/26 03:36:29;;;;;;;39.80;13.82;;;4.20;99.90;;;;;;5054072;28;20052;-47
2022/11/26 03:38:55;;;;;;;38.30;12.40;;;4.00;99.90;;;;;;5052451;28;20442;-48
2022/11/26 03:41:20;;;;;;;34.97;14.50;;;4.10;99.90;;;;;;5047363;28;20055;-41
2022/11/26 03:43:46;;;;;;;40.75;13.55;;;4.10;99.90;;;;;;5054029;28;20048;-45
2022/11/26 03:46:12;;;;;;;36.13;14.77;;;4.20;99.90;;;;;;5053891;28;20060;-43
2022/11/26 03:48:37;;;;;;;39.53;14.20;;;4.20;99.90;;;;;;5053726;28;20190;-45
2022/11/26 03:51:03;;;;;;;35.40;15.10;;;4.00;99.90;;;;;;5053380;28;20290;-42
2022/11/26 03:53:29;;;;;;;37.22;13.93;;;4.20;99.90;;;;;;5054146;28;20125;-49
2022/11/26 03:55:54;;;;;;;36.20;14.80;;;4.10;99.90;;;;;;5055224;28;20444;-48
2022/11/26 03:58:20;;;;;;;33.67;15.82;;;4.20;99.90;;;;;;5054503;28;20055;-42
2022/11/26 04:00:46;;;;;;;33.15;14.23;;;4.20;99.90;;;;;;5053496;28;20122;-46
2022/11/26 04:03:11;;;;;;;41.40;15.23;;;4.10;99.90;;;;;;5051991;28;20140;-45
2022/11/26 04:05:37;;;;;;;35.70;13.82;;;4.00;99.90;;;;;;5054736;28;20217;-42
2022/11/26 04:08:03;;;;;;;34.50;15.32;;;4.10;99.90;;;;;;5054559;28;20118;-44
2022/11/26 04:10:28;;;;;;;40.28;15.13;;;4.10;99.90;;;;;;5053968;28;20060;-42
2022/11/26 04:12:54;;;;;;;39.40;15.40;;;4.10;99.90;;;;;;5054319;28;20475;-48
2022/11/26 04:15:20;;;;;;;37.28;15.50;;;4.10;99.90;;;;;;5053921;28;20048;-45
2022/11/26 04:17:45;;;;;;;37.50;14.60;;;4.10;99.90;;;;;;5054406;28;20051;-44
2022/11/26 04:20:11;;;;;;;35.92;15.20;;;3.90;99.90;;;;;;5054208;28;20447;-43
2022/11/26 04:22:37;;;;;;;39.22;15.68;;;3.90;99.90;;;;;;5044721;28;20045;-41
2022/11/26 04:25:03;;;;;;;32.55;15.00;;;3.90;99.90;;;;;;5049420;28;20051;-44
2022/11/26 04:27:28;;;;;;;42.65;16.02;;;4.00;99.90;;;;;;5056872;28;20037;-44
2022/11/26 04:29:54;;;;;;;39.08;15.00;;;3.90;99.90;;;;;;5056108;28;20461;-46
2022/11/26 04:32:20;;;;;;;38.80;15.30;;;3.90;99.90;;;;;;5055645;28;20359;-45
2022/11/26 04:34:45;;;;;;;41.47;16.40;;;4.00;99.90;;;;;;5057649;28;20403;-44
2022/11/26 04:37:11;;;;;;;45.33;16.38;;;3.90;99.90;;;;;;5057791;28;20135;-44
2022/11/26 04:39:37;;;;;;;41.70;15.73;;;4.00;99.90;;;;;;5057028;28;20048;-43
2022/11/26 04:42:04;;;;;;;44.92;18.95;;;4.00;99.90;;;;;;5049932;28;20179;-42
2022/11/26 04:44:29;;;;;;;37.90;16.05;;;4.10;99.90;;;;;;5057458;28;20556;-48
2022/11/26 04:46:55;;;;;;;42.97;16.40;;;4.10;99.90;;;;;;5057375;28;20044;-47
2022/11/26 04:49:21;;;;;;;41.30;17.00;;;4.00;99.90;;;;;;5056908;28;20465;-44
2022/11/26 04:51:46;;;;;;;33.60;16.02;;;4.10;99.90;;;;;;5056974;28;20163;-47
2022/11/26 04:54:12;;;;;;;40.20;17.48;;;4.10;99.90;;;;;;5057342;28;20505;-44
2022/11/26 04:56:37;;;;;;;44.47;17.63;;;4.00;99.90;;;;;;5057677;28;20139;-45
2022/11/26 04:59:03;;;;;;;37.92;17.42;;;4.10;99.90;;;;;;5056153;28;20057;-41
2022/11/26 05:01:29;;;;;;;38.58;17.63;;;4.10;99.90;;;;;;5055622;28;20087;-41
2022/11/26 05:03:54;;;;;;;37.00;17.23;;;4.00;99.90;;;;;;5055683;28;20083;-49
2022/11/26 05:06:20;;;;;;;46.05;17.60;;;4.20;99.90;;;;;;5054980;28;20461;-45
2022/11/26 05:08:46;;;;;;;38.83;17.55;;;4.20;99.90;;;;;;5054496;28;20493;-45
2022/11/26 05:11:11;;;;;;;41.17;17.65;;;4.10;99.90;;;;;;5056431;28;20040;-48
2022/11/26 05:13:37;;;;;;;44.28;18.00;;;4.20;99.90;;;;;;5056138;28;20044;-43
2022/11/26 05:16:03;;;;;;;42.38;17.27;;;4.10;99.90;;;;;;5056879;28;20052;-47
2022/11/26 05:18:28;;;;;;;31.33;17.17;;;4.20;99.90;;;;;;5056606;28;20044;-41
2022/11/26 05:20:54;;;;;;;49.70;19.05;;;4.10;99.90;;;;;;5056304;28;20529;-45
2022/11/26 05:23:20;;;;;;;36.50;17.92;;;4.10;99.90;;;;;;5041170;28;20045;-45
2022/11/26 05:25:46;;;;;;;39.78;19.13;;;4.10;99.90;;;;;;5055432;28;20554;-53
2022/11/26 05:28:12;;;;;;;40.63;18.23;;;4.20;99.90;;;;;;5056202;28;20044;-45
2022/11/26 05:30:38;;;;;;;42.42;18.48;;;4.10;99.90;;;;;;5055683;28;20541;-43
2022/11/26 05:33:04;;;;;;;42.70;20.83;;;4.20;99.90;;;;;;5055837;28;20044;-42
2022/11/26 05:35:29;;;;;;;43.45;16.95;;;4.10;99.90;;;;;;5056450;28;20589;-48
2022/11/26 05:37:55;;;;;;;46.63;18.30;;;4.10;99.90;;;;;;5055794;28;20451;-46
2022/11/26 05:40:20;;;;;;;37.80;17.83;;;4.20;99.90;;;;;;5052624;28;20075;-46
2022/11/26 05:42:46;;;;;;;40.83;17.98;;;4.20;99.90;;;;;;5033429;28;20561;-50
2022/11/26 05:45:12;;;;;;;45.38;18.23;;;4.10;99.90;;;;;;5057936;28;20454;-45
2022/11/26 05:47:37;;;;;;;41.78;18.45;;;4.10;99.90;;;;;;5057648;28;20460;-44
2022/11/26 05:50:03;;;;;;;38.63;18.73;;;4.20;99.90;;;;;;5057155;28;20454;-44
2022/11/26 05:52:29;;;;;;;42.78;18.13;;;4.10;99.90;;;;;;5056612;28;20134;-47
2022/11/26 05:54:55;;;;;;;41.17;17.17;;;4.20;99.90;;;;;;5057453;28;20083;-47
2022/11/26 05:57:20;;;;;;;40.63;17.70;;;4.20;99.90;;;;;;5057487;28;20131;-46
2022/11/26 05:59:48;;;;;;;41.30;18.23;;;4.30;99.90;;;;;;5056777;28;20358;-47
2022/11/26 06:02:13;;;;;;;45.45;18.65;;;4.20;99.90;;;;;;5054854;28;20056;-42
2022/11/26 06:04:39;;;;;;;36.60;18.63;;;4.30;99.90;;;;;;5057692;28;20391;-46
2022/11/26 06:07:05;;;;;;;40.35;17.70;;;4.10;99.90;;;;;;5056924;28;20045;-44
2022/11/26 06:09:31;;;;;;;40.72;20.33;;;4.10;99.90;;;;;;5055999;28;20095;-48
2022/11/26 06:11:56;;;;;;;52.75;18.55;;;4.30;99.90;;;;;;5055917;28;20543;-47
2022/11/26 06:14:22;;;;;;;40.63;17.42;;;4.10;99.90;;;;;;5057311;28;20040;-46
2022/11/26 06:16:47;;;;;;;40.75;19.38;;;4.30;99.90;;;;;;5057283;28;20482;-44
2022/11/26 06:19:13;;;;;;;43.92;18.60;;;4.30;99.90;;;;;;5055927;28;20045;-45
2022/11/26 06:21:39;;;;;;;44.50;19.15;;;4.20;99.90;;;;;;5053936;28;20060;-47
2022/11/26 06:24:05;;;;;;;48.17;20.38;;;4.30;99.90;;;;;;5044386;28;20048;-48
2022/11/26 06:26:30;;;;;;;40.58;18.30;;;4.30;99.90;;;;;;5056611;28;20127;-45
2022/11/26 06:28:56;;;;;;;36.75;19.50;;;4.30;99.90;;;;;;5056291;28;20071;-47
2022/11/26 06:31:21;;;;;;;52.33;20.20;;;4.20;99.90;;;;;;5056036;28;20070;-47
2022/11/26 06:33:51;;;;;;;41.58;19.33;;;4.20;99.90;;;;;;5056519;28;20088;-46
2022/11/26 06:36:17;;;;;;;47.90;19.83;;;4.20;99.90;;;;;;5055780;28;20056;-47
2022/11/26 06:38:42;;;;;;;48.45;20.25;;;4.20;99.90;;;;;;5055668;28;20496;-48
2022/11/26 06:41:08;;;;;;;46.58;20.45;;;4.20;99.90;;;;;;5047257;28;20375;-48
2022/11/26 06:43:34;;;;;;;40.90;19.65;;;4.40;99.90;;;;;;5056233;28;20040;-47
2022/11/26 06:46:06;;;;;;;50.65;20.35;;;4.50;99.90;;;;;;5055785;28;20048;-47
2022/11/26 06:48:33;;;;;;;48.53;19.95;;;4.30;99.90;;;;;;5054845;28;20048;-49
2022/11/26 06:51:11;;;;;;;47.33;20.20;;;4.40;99.90;;;;;;5055490;28;20040;-43
2022/11/26 06:53:37;;;;;;;49.47;20.88;;;4.40;99.90;;;;;;5055588;28;20044;-47
2022/11/26 06:56:05;;;;;;;45.30;20.38;;;4.30;99.90;;;;;;5055220;28;20485;-46
2022/11/26 06:58:31;;;;;;;47.13;20.85;;;4.40;99.90;;;;;;5054709;28;20086;-47
2022/11/26 07:00:57;;;;;;;43.50;20.35;;;4.40;99.90;;;;;;5055255;28;20052;-47
2022/11/26 07:03:24;;;;;;;51.38;20.17;;;4.20;99.90;;;;;;5054815;28;20084;-46
2022/11/26 07:05:49;;;;;;;50.88;21.17;;;4.20;99.90;;;;;;5054953;28;20518;-48
2022/11/26 07:08:15;;;;;;;49.00;20.90;;;4.30;99.90;;;;;;5055607;28;20044;-42
2022/11/26 07:10:41;;;;;;;55.28;21.70;;;4.30;99.90;;;;;;5055085;28;20174;-41
2022/11/26 07:13:06;;;;;;;45.38;21.15;;;4.20;99.90;;;;;;5054819;28;20041;-46
2022/11/26 07:15:32;;;;;;;52.63;20.92;;;4.20;99.90;;;;;;5055442;28;20561;-46
2022/11/26 07:17:58;;;;;;;48.55;21.67;;;4.30;99.90;;;;;;5055403;28;20051;-46
2022/11/26 07:20:24;;;;;;;46.72;21.02;;;4.30;99.90;;;;;;5054553;28;20040;-46
2022/11/26 07:22:51;;;;;;;49.13;22.77;;;4.50;99.90;;;;;;5043323;28;20060;-41
2022/11/26 07:25:17;;;;;;;54.17;23.02;;;4.40;99.90;;;;;;5052599;28;20066;-47
2022/11/26 07:27:44;;;;;;;49.22;22.30;;;4.40;99.90;;;;;;5055117;28;20154;-44
2022/11/26 07:30:11;;;;;;;40.13;20.00;;;4.30;99.90;;;;;;5054583;28;20053;-43
2022/11/26 07:32:37;;;;;;;52.72;21.35;;;4.40;99.90;;;;;;5053820;28;20055;-44
2022/11/26 07:35:03;;;;;;;43.08;21.40;;;4.30;99.90;;;;;;5054179;28;20154;-46
2022/11/26 07:37:32;;;;;;;53.33;22.25;;;4.40;99.90;;;;;;5055193;28;20048;-48
2022/11/26 07:39:57;;;;;;;54.92;20.83;;;4.40;99.90;;;;;;5054844;28;20048;-45
2022/11/26 07:42:23;;;;;;;44.25;23.25;;;4.50;99.90;;;;;;5050468;28;20575;-49
2022/11/26 07:44:49;;;;;;;37.53;20.98;;;4.50;99.90;;;;;;5038510;28;20426;-44
2022/11/26 07:47:15;;;;;;;49.00;20.63;;;4.60;99.90;;;;;;5042766;28;20049;-46
2022/11/26 07:49:40;;;;;;;50.95;22.08;;;4.50;99.90;;;;;;5036323;28;20045;-42
2022/11/26 07:52:06;;;;;;;48.50;22.50;;;4.50;99.90;;;;;;5041432;28;20606;-47
2022/11/26 07:54:32;;;;;;;46.22;21.88;;;4.50;99.90;;;;;;5040072;28;20176;-50
2022/11/26 07:56:57;;;;;;;47.05;21.33;;;4.50;99.90;;;;;;5054692;28;20135;-48
2022/11/26 07:59:23;;;;;;;56.20;22.25;;;4.60;99.90;;;;;;5052597;28;20507;-47
2022/11/26 08:01:49;;;;;;;47.78;21.88;;;4.70;99.90;;;;;;5053479;28;20466;-42
2022/11/26 08:04:14;;;;;;;41.90;21.50;;;4.60;99.90;;;;;;5054198;28;20137;-47
2022/11/26 08:06:40;;;;;;;53.17;23.73;;;4.60;99.90;;;;;;5054387;28;20045;-47
2022/11/26 08:09:06;;;;;;;46.60;22.95;;;4.70;99.90;;;;;;5053930;28;20047;-42
2022/11/26 08:11:33;;;;;;;53.38;23.27;;;4.70;99.90;;;;;;5052368;28;20044;-49
2022/11/26 08:14:05;;;;;;;44.80;21.35;;;4.70;99.90;;;;;;5053404;28;20131;-48
2022/11/26 08:16:31;;;;;;;44.75;21.60;;;4.80;99.90;;;;;;5054826;28;20060;-46
2022/11/26 08:19:00;;;;;;;43.03;20.77;;;4.70;99.90;;;;;;5052084;28;20513;-48
2022/11/26 08:21:25;;;;;;;57.22;22.52;;;4.70;99.90;;;;;;5052188;28;20060;-49
2022/11/26 08:23:52;;;;;;;46.03;23.33;;;4.80;99.90;;;;;;5041337;28;20045;-42
2022/11/26 08:26:18;;;;;;;49.10;22.50;;;4.90;99.90;;;;;;5054388;28;20119;-47
2022/11/26 08:28:45;;;;;;;43.67;21.77;;;4.90;99.90;;;;;;5051558;28;20514;-47
2022/11/26 08:31:13;;;;;;;46.63;21.52;;;5.00;99.90;;;;;;5053460;28;20521;-45
2022/11/26 08:33:39;;;;;;;47.33;21.40;;;4.90;99.90;;;;;;5053973;28;20045;-43
2022/11/26 08:36:06;;;;;;;43.45;20.33;;;5.00;99.90;;;;;;5054064;28;20081;-43
2022/11/26 08:38:32;;;;;;;49.58;21.08;;;5.00;99.90;;;;;;5052564;28;20201;-49
2022/11/26 08:41:05;;;;;;;48.28;22.25;;;5.10;99.90;;;;;;5051115;28;20053;-47
2022/11/26 08:43:33;;;;;;;41.85;21.55;;;5.00;99.90;;;;;;5039751;28;20154;-46
2022/11/26 08:45:59;;;;;;;46.22;21.77;;;5.00;99.90;;;;;;5054310;28;20061;-43
2022/11/26 08:48:27;;;;;;;42.55;20.35;;;5.00;99.90;;;;;;5054054;28;20048;-47
2022/11/26 08:50:57;;;;;;;44.75;20.17;;;5.10;99.90;;;;;;5054398;28;20041;-45
2022/11/26 08:53:23;;;;;;;40.22;19.80;;;5.20;99.90;;;;;;5054380;28;20047;-45
2022/11/26 08:55:49;;;;;;;43.60;20.88;;;5.40;99.90;;;;;;5053599;28;20048;-49
2022/11/26 08:58:14;;;;;;;43.17;21.73;;;5.30;99.90;;;;;;5054051;28;20057;-48
2022/11/26 09:00:40;;;;;;;43.03;19.27;;;5.40;99.90;;;;;;5053904;28;20037;-44
2022/11/26 09:03:07;;;;;;;43.15;20.42;;;5.60;99.90;;;;;;5054020;28;20380;-43
2022/11/26 09:05:33;;;;;;;39.45;20.55;;;5.50;99.90;;;;;;5054385;28;20493;-45
2022/11/26 09:07:58;;;;;;;50.15;19.63;;;5.60;99.90;;;;;;5055188;28;20049;-45
2022/11/26 09:10:24;;;;;;;49.00;19.88;;;5.70;99.90;;;;;;5052243;28;20451;-45
2022/11/26 09:12:50;;;;;;;42.58;19.42;;;5.70;99.90;;;;;;5052664;28;20117;-44
2022/11/26 09:15:16;;;;;;;46.75;19.20;;;5.80;99.90;;;;;;5057756;28;20045;-41
2022/11/26 09:17:41;;;;;;;44.13;19.52;;;5.90;99.90;;;;;;5058136;28;20079;-48
2022/11/26 09:20:07;;;;;;;39.25;19.55;;;5.90;99.90;;;;;;5056249;28;20208;-46
2022/11/26 09:22:34;;;;;;;38.67;19.25;;;6.00;99.90;;;;;;5048626;28;20052;-49
2022/11/26 09:25:00;;;;;;;38.67;21.10;;;6.10;99.90;;;;;;5050888;28;20055;-45
2022/11/26 09:27:25;;;;;;;38.28;19.70;;;6.20;99.90;;;;;;5058251;28;20049;-45
2022/11/26 09:29:51;;;;;;;46.40;20.42;;;6.30;99.90;;;;;;5058221;28;20051;-41
2022/11/26 09:32:17;;;;;;;39.50;21.88;;;6.40;99.90;;;;;;5057283;28;20053;-43
2022/11/26 09:34:42;;;;;;;41.40;19.35;;;6.40;99.90;;;;;;5057670;28;20585;-47
2022/11/26 09:37:08;;;;;;;37.80;19.33;;;6.50;99.90;;;;;;5057194;28;20048;-48
2022/11/26 09:39:34;;;;;;;46.15;21.05;;;6.40;99.90;;;;;;5054709;28;20052;-42
2022/11/26 09:42:08;;;;;;;42.38;19.00;;;6.60;99.90;;;;;;5049666;28;20052;-49
2022/11/26 09:44:51;;;;;;;39.53;18.08;;;6.60;99.90;;;;;;5057065;28;20052;-46
2022/11/26 09:47:18;;;;;;;43.50;18.77;;;6.60;99.90;;;;;;5053539;28;20102;-44
2022/11/26 09:50:02;;;;;;;40.85;17.92;;;6.60;99.90;;;;;;5054782;28;20056;-44
2022/11/26 09:52:32;;;;;;;;;;;6.60;99.90;;;;;;5055895;28;20076;-44
2022/11/26 09:55:12;;;;;;;35.10;17.35;;;6.60;99.90;;;;;;5056794;28;20563;-47
2022/11/26 09:57:42;;;;;;;42.88;18.92;;;6.60;99.90;;;;;;5056718;28;20215;-47
2022/11/26 10:00:33;;;;;;;43.78;17.85;;;6.70;99.90;;;;;;5055897;28;20839;-45
2022/11/26 10:02:59;;;;;;;44.80;19.25;;;6.70;99.90;;;;;;5055189;28;20139;-51
2022/11/26 10:05:53;;;;;;;45.30;18.58;;;6.70;99.90;;;;;;5055593;28;20054;-54
2022/11/26 10:08:18;;;;;;;48.70;18.58;;;6.80;99.90;;;;;;5055909;28;20407;-45
2022/11/26 10:11:13;;;;;;;37.55;19.10;;;6.90;99.90;;;;;;5055823;28;20040;-44
2022/11/26 10:13:52;;;;;;;47.42;19.73;;;6.90;99.90;;;;;;5055328;28;20056;-43
2022/11/26 10:16:27;;;;;;;41.30;20.13;;;6.90;99.90;;;;;;5055943;28;20568;-43
2022/11/26 10:18:57;;;;;;;39.25;20.23;;;7.00;99.90;;;;;;5056289;28;20129;-47
2022/11/26 10:21:33;;;;;;;47.65;20.42;;;7.00;99.90;;;;;;5054519;28;20045;-45
2022/11/26 10:24:05;;;;;;;48.75;20.10;;;7.00;99.90;;;;;;5053111;28;20126;-44
2022/11/26 10:26:40;;;;;;;45.50;20.02;;;7.10;99.90;;;;;;5053507;28;20398;-42
2022/11/26 10:29:27;;;;;;;47.95;20.63;;;7.20;99.90;;;;;;5055891;28;20044;-44
2022/11/26 10:32:00;;;;;;;44.63;19.85;;;7.10;99.90;;;;;;5054331;28;20082;-47
2022/11/26 10:34:36;;;;;;;40.13;19.33;;;7.20;99.90;;;;;;5053233;28;20407;-42
2022/11/26 10:37:02;;;;;;;46.08;19.40;;;7.20;99.90;;;;;;5043597;28;20098;-46
2022/11/26 10:39:28;;;;;;;51.50;19.77;;;7.30;99.90;;;;;;5056127;28;20052;-45
2022/11/26 10:41:54;;;;;;;43.88;20.30;;;7.30;99.90;;;;;;5048874;28;20624;-44
2022/11/26 10:44:34;;;;;;;45.42;19.77;;;7.40;99.90;;;;;;5055144;28;20040;-46
2022/11/26 10:47:22;;;;;;;43.60;20.23;;;7.30;99.90;;;;;;5055942;28;20063;-45
2022/11/26 10:49:49;;;;;;;49.15;19.27;;;7.40;99.90;;;;;;5056272;28;20480;-42
2022/11/26 10:52:19;;;;;;;40.80;18.17;;;7.40;99.90;;;;;;5055546;28;20824;-45
2022/11/26 10:54:46;;;;;;;43.20;17.48;;;7.40;99.90;;;;;;5055392;28;20331;-47
2022/11/26 10:57:18;;;;;;;44.15;18.17;;;7.50;99.90;;;;;;5054018;28;20470;-45
2022/11/26 10:59:43;;;;;;;38.28;18.17;;;7.50;99.90;;;;;;5042931;28;20127;-45
2022/11/26 11:02:21;;;;;;;47.00;18.88;;;7.60;99.90;;;;;;5054019;28;20047;-46
2022/11/26 11:04:50;;;;;;;36.17;18.25;;;7.60;99.90;;;;;;5055389;28;20048;-44
2022/11/26 11:07:36;;;;;;;43.50;18.42;;;7.70;99.90;;;;;;5055640;28;20040;-46
2022/11/26 11:10:08;;;;;;;35.13;17.17;;;7.70;99.90;;;;;;5055880;28;20055;-45
2022/11/26 11:12:35;;;;;;;36.60;16.33;;;7.70;99.90;;;;;;5055380;28;20074;-47
2022/11/26 11:15:26;;;;;;;39.10;17.80;;;7.70;99.90;;;;;;5053213;28;20053;-42
2022/11/26 11:18:14;;;;;;;36.70;17.27;;;7.90;99.90;;;;;;5054089;28;20056;-47
2022/11/26 11:20:42;;;;;;;31.67;16.42;;;7.80;99.90;;;;;;5055400;28;20460;-47
2022/11/26 11:23:11;;;;;;;42.75;17.90;;;7.90;99.90;;;;;;5041546;28;20064;-44
2022/11/26 11:25:47;;;;;;;41.03;18.23;;;8.00;99.90;;;;;;5054997;28;20060;-47
2022/11/26 11:28:17;;;;;;;39.40;17.17;;;7.90;99.90;;;;;;5055779;28;20399;-45
2022/11/26 11:30:45;;;;;;;43.15;17.10;;;7.90;99.90;;;;;;5028600;28;20060;-46
2022/11/26 11:33:13;;;;;;;39.17;17.48;;;8.00;99.90;;;;;;5050636;28;20051;-45
2022/11/26 11:35:39;;;;;;;35.88;17.48;;;8.00;99.90;;;;;;5054169;28;20056;-42
2022/11/26 11:38:22;;;;;;;38.65;16.70;;;8.10;99.90;;;;;;5055055;28;20045;-45
2022/11/26 11:40:48;;;;;;;41.50;16.45;;;8.10;99.90;;;;;;5051726;28;20388;-46
2022/11/26 11:43:16;;;;;;;36.60;17.38;;;8.20;99.90;;;;;;5054734;28;20072;-42
2022/11/26 11:45:55;;;;;;;34.65;16.52;;;8.20;99.90;;;;;;5054274;28;20099;-47
2022/11/26 11:48:29;;;;;;;39.28;16.15;;;8.20;99.90;;;;;;5042617;28;20558;-44
2022/11/26 11:51:02;;;;;;;38.80;17.23;;;8.20;99.90;;;;;;5053772;28;20048;-51
2022/11/26 11:53:30;;;;;;;;;;;8.10;99.90;;;;;;5055985;28;20056;-42
2022/11/26 11:56:14;;;;;;;37.85;15.50;;;8.20;99.90;;;;;;5054827;28;20334;-43
2022/11/26 11:59:05;;;;;;;35.55;14.65;;;8.20;99.90;;;;;;5055276;28;20079;-47
2022/11/26 12:01:56;;;;;;;39.08;16.17;;;8.10;99.90;;;;;;5055297;28;20056;-50
2022/11/26 12:04:41;;;;;;;39.05;16.23;;;8.20;99.90;;;;;;5012014;28;20072;-48
2022/11/26 12:07:25;;;;;;;43.25;16.25;;;8.40;99.90;;;;;;5011945;28;20213;-46
2022/11/26 12:10:13;;;;;;;40.80;17.80;;;8.50;99.90;;;;;;5009658;28;20045;-46
2022/11/26 12:12:47;;;;;;;35.58;16.00;;;8.60;99.90;;;;;;5009605;28;20132;-42
2022/11/26 12:15:32;;;;;;;37.50;15.75;;;8.60;99.90;;;;;;5009685;28;20136;-47
2022/11/26 12:18:31;;;;;;;32.30;16.92;;;8.80;99.90;;;;;;5011395;28;20097;-43
2022/11/26 12:21:04;;;;;;;41.55;16.33;;;8.80;99.90;;;;;;5011017;28;20080;-48
2022/11/26 12:23:48;;;;;;;37.50;15.65;;;8.90;99.90;;;;;;5008224;28;20045;-49
2022/11/26 12:26:31;;;;;;;36.38;15.82;;;8.90;99.90;;;;;;5010275;28;20050;-45
2022/11/26 12:29:13;;;;;;;35.03;14.82;;;8.90;99.90;;;;;;5012127;28;20053;-45
2022/11/26 12:31:47;;;;;;;35.20;14.68;;;8.80;99.90;;;;;;5008549;28;20080;-42
2022/11/26 12:34:53;;;;;;;31.73;15.73;;;8.90;99.90;;;;;;5010499;28;20065;-43
2022/11/26 12:37:32;;;;;;;40.05;15.90;;;8.80;99.90;;;;;;4991152;28;20450;-42
2022/11/26 12:40:22;;;;;;;36.53;15.10;;;8.80;99.90;;;;;;5025534;28;20061;-47
2022/11/26 12:42:59;;;;;;;36.20;14.70;;;8.90;99.90;;;;;;5052401;28;20186;-43
2022/11/26 12:45:33;;;;;;;39.28;16.05;;;8.80;99.90;;;;;;5053135;28;20041;-47
2022/11/26 12:48:03;;;;;;;30.80;15.65;;;8.80;99.90;;;;;;5056159;28;20177;-48
2022/11/26 12:50:43;;;;;;;34.05;16.60;;;8.70;99.90;;;;;;5058501;28;20049;-42
2022/11/26 12:53:29;;;;;;;34.83;15.30;;;8.80;99.90;;;;;;5058313;28;20494;-43